sensor_id;sensor_type;location;lat;lon;timestamp;temperature;humidity
32139;DHT22;18644;48.700;9.210;2023-02-12T00:02:26;8.10;57.00
32139;DHT22;18644;48.700;9.210;2023-02-12T00:04:54;8.10;57.00
32139;DHT22;18644;48.700;9.210;2023-02-12T00:07:21;8.10;57.00
32139;DHT22;18644;48.700;9.210;2023-02-12T00:09:48;8.10;57.00
32139;DHT22;18644;48.700;9.210;2023-02-12T00:12:15;8.10;57.00
32139;DHT22;18644;48.700;9.210;2023-02-12T00:14:42;8.10;57.00
32139;DHT22;18644;48.700;9.210;2023-02-12T00:17:09;8.10;57.00
32139;DHT22;18644;48.700;9.210;2023-02-12T00:19:36;8.10;57.00
32139;DHT22;18644;48.700;9.210;2023-02-12T00:22:05;8.10;57.00
32139;DHT22;18644;48.700;9.210;2023-02-12T00:24:32;8.10;57.10
32139;DHT22;18644;48.700;9.210;2023-02-12T00:26:59;8.00;57.00
32139;DHT22;18644;48.700;9.210;2023-02-12T00:29:25;8.10;57.10
32139;DHT22;18644;48.700;9.210;2023-02-12T00:31:52;8.00;57.10
32139;DHT22;18644;48.700;9.210;2023-02-12T00:34:22;8.00;57.20
32139;DHT22;18644;48.700;9.210;2023-02-12T00:36:49;8.00;57.20
32139;DHT22;18644;48.700;9.210;2023-02-12T00:39:17;8.00;57.20
32139;DHT22;18644;48.700;9.210;2023-02-12T00:41:44;8.00;57.30
32139;DHT22;18644;48.700;9.210;2023-02-12T00:44:11;8.00;57.30
32139;DHT22;18644;48.700;9.210;2023-02-12T00:46:40;8.00;57.30
32139;DHT22;18644;48.700;9.210;2023-02-12T00:49:06;8.00;57.40
32139;DHT22;18644;48.700;9.210;2023-02-12T00:51:34;8.00;57.40
32139;DHT22;18644;48.700;9.210;2023-02-12T00:54:00;8.00;57.40
32139;DHT22;18644;48.700;9.210;2023-02-12T00:56:29;8.00;57.50
32139;DHT22;18644;48.700;9.210;2023-02-12T00:58:55;8.00;57.50
32139;DHT22;18644;48.700;9.210;2023-02-12T01:01:23;8.00;57.50
32139;DHT22;18644;48.700;9.210;2023-02-12T01:03:50;8.00;57.50
32139;DHT22;18644;48.700;9.210;2023-02-12T01:06:17;8.00;57.50
32139;DHT22;18644;48.700;9.210;2023-02-12T01:08:44;8.00;57.60
32139;DHT22;18644;48.700;9.210;2023-02-12T01:11:12;8.00;57.60
32139;DHT22;18644;48.700;9.210;2023-02-12T01:13:40;8.00;57.60
32139;DHT22;18644;48.700;9.210;2023-02-12T01:16:16;8.00;57.60
32139;DHT22;18644;48.700;9.210;2023-02-12T01:18:45;8.00;57.70
32139;DHT22;18644;48.700;9.210;2023-02-12T01:21:14;8.00;57.60
32139;DHT22;18644;48.700;9.210;2023-02-12T01:23:43;7.90;57.60
32139;DHT22;18644;48.700;9.210;2023-02-12T01:26:12;7.90;57.70
32139;DHT22;18644;48.700;9.210;2023-02-12T01:28:44;7.90;57.70
32139;DHT22;18644;48.700;9.210;2023-02-12T01:31:16;7.90;57.80
32139;DHT22;18644;48.700;9.210;2023-02-12T01:33:46;7.90;57.80
32139;DHT22;18644;48.700;9.210;2023-02-12T01:36:13;7.90;57.80
32139;DHT22;18644;48.700;9.210;2023-02-12T01:38:40;7.80;57.80
32139;DHT22;18644;48.700;9.210;2023-02-12T01:41:09;7.80;57.80
32139;DHT22;18644;48.700;9.210;2023-02-12T01:43:38;7.80;57.80
32139;DHT22;18644;48.700;9.210;2023-02-12T01:46:10;7.80;57.90
32139;DHT22;18644;48.700;9.210;2023-02-12T01:48:42;7.80;57.90
32139;DHT22;18644;48.700;9.210;2023-02-12T01:51:15;7.80;58.00
32139;DHT22;18644;48.700;9.210;2023-02-12T01:53:49;7.80;58.00
32139;DHT22;18644;48.700;9.210;2023-02-12T01:56:18;7.80;58.00
32139;DHT22;18644;48.700;9.210;2023-02-12T01:58:47;7.70;58.00
32139;DHT22;18644;48.700;9.210;2023-02-12T02:01:21;7.70;58.00
32139;DHT22;18644;48.700;9.210;2023-02-12T02:03:52;7.70;58.10
32139;DHT22;18644;48.700;9.210;2023-02-12T02:06:24;7.70;58.10
32139;DHT22;18644;48.700;9.210;2023-02-12T02:08:53;7.70;58.10
32139;DHT22;18644;48.700;9.210;2023-02-12T02:11:21;7.70;58.10
32139;DHT22;18644;48.700;9.210;2023-02-12T02:14:06;7.70;58.10
32139;DHT22;18644;48.700;9.210;2023-02-12T02:16:58;7.70;58.00
32139;DHT22;18644;48.700;9.210;2023-02-12T02:19:49;7.70;58.20
32139;DHT22;18644;48.700;9.210;2023-02-12T02:22:30;7.70;58.40
32139;DHT22;18644;48.700;9.210;2023-02-12T02:28:40;7.60;58.40
32139;DHT22;18644;48.700;9.210;2023-02-12T02:31:19;7.60;58.40
32139;DHT22;18644;48.700;9.210;2023-02-12T02:33:55;7.60;58.30
32139;DHT22;18644;48.700;9.210;2023-02-12T02:36:34;7.60;58.40
32139;DHT22;18644;48.700;9.210;2023-02-12T02:39:11;7.60;58.60
32139;DHT22;18644;48.700;9.210;2023-02-12T02:41:49;7.60;58.60
32139;DHT22;18644;48.700;9.210;2023-02-12T02:44:23;7.70;58.70
32139;DHT22;18644;48.700;9.210;2023-02-12T02:46:55;7.60;58.60
32139;DHT22;18644;48.700;9.210;2023-02-12T02:49:26;7.70;58.60
32139;DHT22;18644;48.700;9.210;2023-02-12T02:52:04;7.70;58.60
32139;DHT22;18644;48.700;9.210;2023-02-12T02:54:38;7.70;58.60
32139;DHT22;18644;48.700;9.210;2023-02-12T02:57:13;7.70;58.60
32139;DHT22;18644;48.700;9.210;2023-02-12T02:59:44;7.80;58.70
32139;DHT22;18644;48.700;9.210;2023-02-12T03:02:17;7.80;58.70
32139;DHT22;18644;48.700;9.210;2023-02-12T03:04:49;7.80;58.70
32139;DHT22;18644;48.700;9.210;2023-02-12T03:07:23;7.80;58.70
32139;DHT22;18644;48.700;9.210;2023-02-12T03:09:55;7.80;58.70
32139;DHT22;18644;48.700;9.210;2023-02-12T03:12:29;7.80;58.70
32139;DHT22;18644;48.700;9.210;2023-02-12T03:15:03;7.80;58.80
32139;DHT22;18644;48.700;9.210;2023-02-12T03:17:38;7.80;58.70
32139;DHT22;18644;48.700;9.210;2023-02-12T03:20:11;7.80;58.70
32139;DHT22;18644;48.700;9.210;2023-02-12T03:22:42;7.80;58.70
32139;DHT22;18644;48.700;9.210;2023-02-12T03:25:17;7.80;58.70
32139;DHT22;18644;48.700;9.210;2023-02-12T03:27:51;7.80;58.70
32139;DHT22;18644;48.700;9.210;2023-02-12T03:30:22;7.80;58.60
32139;DHT22;18644;48.700;9.210;2023-02-12T03:32:59;7.80;58.60
32139;DHT22;18644;48.700;9.210;2023-02-12T03:35:31;7.80;58.60
32139;DHT22;18644;48.700;9.210;2023-02-12T03:38:09;7.80;58.70
32139;DHT22;18644;48.700;9.210;2023-02-12T03:40:49;7.70;58.70
32139;DHT22;18644;48.700;9.210;2023-02-12T03:43:24;7.70;58.70
32139;DHT22;18644;48.700;9.210;2023-02-12T03:45:56;7.70;58.80
32139;DHT22;18644;48.700;9.210;2023-02-12T03:48:27;7.70;58.80
32139;DHT22;18644;48.700;9.210;2023-02-12T03:50:58;7.70;58.90
32139;DHT22;18644;48.700;9.210;2023-02-12T03:53:28;7.70;58.80
32139;DHT22;18644;48.700;9.210;2023-02-12T03:55:58;7.70;58.80
32139;DHT22;18644;48.700;9.210;2023-02-12T03:58:29;7.70;58.90
32139;DHT22;18644;48.700;9.210;2023-02-12T04:00:59;7.70;58.90
32139;DHT22;18644;48.700;9.210;2023-02-12T04:03:28;7.70;58.90
32139;DHT22;18644;48.700;9.210;2023-02-12T04:05:56;7.70;58.90
32139;DHT22;18644;48.700;9.210;2023-02-12T04:08:23;7.70;58.90
32139;DHT22;18644;48.700;9.210;2023-02-12T04:10:59;7.70;58.80
32139;DHT22;18644;48.700;9.210;2023-02-12T04:13:35;7.70;58.80
32139;DHT22;18644;48.700;9.210;2023-02-12T04:16:19;7.70;58.80
32139;DHT22;18644;48.700;9.210;2023-02-12T04:18:50;7.80;58.80
32139;DHT22;18644;48.700;9.210;2023-02-12T04:21:32;7.80;58.80
32139;DHT22;18644;48.700;9.210;2023-02-12T04:24:10;7.80;58.80
32139;DHT22;18644;48.700;9.210;2023-02-12T04:26:47;7.80;58.80
32139;DHT22;18644;48.700;9.210;2023-02-12T04:29:20;7.70;58.80
32139;DHT22;18644;48.700;9.210;2023-02-12T04:31:55;7.70;58.70
32139;DHT22;18644;48.700;9.210;2023-02-12T04:34:31;7.70;58.70
32139;DHT22;18644;48.700;9.210;2023-02-12T04:37:04;7.70;58.70
32139;DHT22;18644;48.700;9.210;2023-02-12T04:39:36;7.70;58.70
32139;DHT22;18644;48.700;9.210;2023-02-12T04:42:07;7.70;58.70
32139;DHT22;18644;48.700;9.210;2023-02-12T04:44:37;7.70;58.80
32139;DHT22;18644;48.700;9.210;2023-02-12T04:47:05;7.60;58.70
32139;DHT22;18644;48.700;9.210;2023-02-12T04:49:33;7.60;58.70
32139;DHT22;18644;48.700;9.210;2023-02-12T04:52:00;7.60;58.80
32139;DHT22;18644;48.700;9.210;2023-02-12T04:54:27;7.60;58.80
32139;DHT22;18644;48.700;9.210;2023-02-12T04:56:54;7.60;58.90
32139;DHT22;18644;48.700;9.210;2023-02-12T04:59:21;7.60;58.90
32139;DHT22;18644;48.700;9.210;2023-02-12T05:01:48;7.60;58.90
32139;DHT22;18644;48.700;9.210;2023-02-12T05:04:15;7.60;58.90
32139;DHT22;18644;48.700;9.210;2023-02-12T05:06:44;7.60;58.90
32139;DHT22;18644;48.700;9.210;2023-02-12T05:09:13;7.60;58.90
32139;DHT22;18644;48.700;9.210;2023-02-12T05:11:42;7.60;58.90
32139;DHT22;18644;48.700;9.210;2023-02-12T05:14:09;7.60;58.90
32139;DHT22;18644;48.700;9.210;2023-02-12T05:16:36;7.60;58.90
32139;DHT22;18644;48.700;9.210;2023-02-12T05:19:03;7.60;58.90
32139;DHT22;18644;48.700;9.210;2023-02-12T05:21:30;7.60;58.90
32139;DHT22;18644;48.700;9.210;2023-02-12T05:24:00;7.60;58.90
32139;DHT22;18644;48.700;9.210;2023-02-12T05:26:27;7.60;59.00
32139;DHT22;18644;48.700;9.210;2023-02-12T05:28:54;7.60;59.00
32139;DHT22;18644;48.700;9.210;2023-02-12T05:31:21;7.60;59.00
32139;DHT22;18644;48.700;9.210;2023-02-12T05:33:48;7.60;59.00
32139;DHT22;18644;48.700;9.210;2023-02-12T05:36:17;7.60;58.90
32139;DHT22;18644;48.700;9.210;2023-02-12T05:38:46;7.60;58.90
32139;DHT22;18644;48.700;9.210;2023-02-12T05:41:16;7.60;58.90
32139;DHT22;18644;48.700;9.210;2023-02-12T05:43:44;7.60;59.10
32139;DHT22;18644;48.700;9.210;2023-02-12T05:46:12;7.60;59.00
32139;DHT22;18644;48.700;9.210;2023-02-12T05:48:39;7.60;59.00
32139;DHT22;18644;48.700;9.210;2023-02-12T05:51:07;7.60;59.00
32139;DHT22;18644;48.700;9.210;2023-02-12T05:53:38;7.50;59.00
32139;DHT22;18644;48.700;9.210;2023-02-12T05:56:10;7.50;59.10
32139;DHT22;18644;48.700;9.210;2023-02-12T05:58:42;7.50;59.10
32139;DHT22;18644;48.700;9.210;2023-02-12T06:01:12;7.50;59.10
32139;DHT22;18644;48.700;9.210;2023-02-12T06:03:41;7.50;59.10
32139;DHT22;18644;48.700;9.210;2023-02-12T06:06:09;7.50;59.20
32139;DHT22;18644;48.700;9.210;2023-02-12T06:08:36;7.50;59.30
32139;DHT22;18644;48.700;9.210;2023-02-12T06:11:06;7.50;59.30
32139;DHT22;18644;48.700;9.210;2023-02-12T06:13:34;7.50;59.30
32139;DHT22;18644;48.700;9.210;2023-02-12T06:16:02;7.50;59.30
32139;DHT22;18644;48.700;9.210;2023-02-12T06:18:30;7.50;59.40
32139;DHT22;18644;48.700;9.210;2023-02-12T06:21:02;7.40;59.30
32139;DHT22;18644;48.700;9.210;2023-02-12T06:23:29;7.50;59.40
32139;DHT22;18644;48.700;9.210;2023-02-12T06:25:56;7.40;59.70
32139;DHT22;18644;48.700;9.210;2023-02-12T06:28:23;7.40;59.30
32139;DHT22;18644;48.700;9.210;2023-02-12T06:30:50;7.40;59.30
32139;DHT22;18644;48.700;9.210;2023-02-12T06:33:18;7.40;59.30
32139;DHT22;18644;48.700;9.210;2023-02-12T06:35:45;7.40;59.40
32139;DHT22;18644;48.700;9.210;2023-02-12T06:38:12;7.40;59.40
32139;DHT22;18644;48.700;9.210;2023-02-12T06:40:39;7.40;59.40
32139;DHT22;18644;48.700;9.210;2023-02-12T06:43:06;7.40;59.50
32139;DHT22;18644;48.700;9.210;2023-02-12T06:45:33;7.40;59.50
32139;DHT22;18644;48.700;9.210;2023-02-12T06:48:00;7.40;59.50
32139;DHT22;18644;48.700;9.210;2023-02-12T06:50:29;7.40;59.50
32139;DHT22;18644;48.700;9.210;2023-02-12T06:52:57;7.40;59.50
32139;DHT22;18644;48.700;9.210;2023-02-12T06:55:24;7.40;59.50
32139;DHT22;18644;48.700;9.210;2023-02-12T06:57:51;7.40;59.50
32139;DHT22;18644;48.700;9.210;2023-02-12T07:00:19;7.40;59.50
32139;DHT22;18644;48.700;9.210;2023-02-12T07:02:51;7.40;59.50
32139;DHT22;18644;48.700;9.210;2023-02-12T07:05:19;7.40;59.60
32139;DHT22;18644;48.700;9.210;2023-02-12T07:07:48;7.40;59.50
32139;DHT22;18644;48.700;9.210;2023-02-12T07:10:15;7.50;59.60
32139;DHT22;18644;48.700;9.210;2023-02-12T07:12:42;7.50;59.60
32139;DHT22;18644;48.700;9.210;2023-02-12T07:15:09;7.50;59.60
32139;DHT22;18644;48.700;9.210;2023-02-12T07:17:37;7.50;59.70
32139;DHT22;18644;48.700;9.210;2023-02-12T07:20:05;7.50;59.70
32139;DHT22;18644;48.700;9.210;2023-02-12T07:22:34;7.50;59.80
32139;DHT22;18644;48.700;9.210;2023-02-12T07:25:03;7.60;59.80
32139;DHT22;18644;48.700;9.210;2023-02-12T07:27:31;7.60;59.70
32139;DHT22;18644;48.700;9.210;2023-02-12T07:29:58;7.60;59.60
32139;DHT22;18644;48.700;9.210;2023-02-12T07:32:25;7.60;59.70
32139;DHT22;18644;48.700;9.210;2023-02-12T07:34:52;7.60;59.80
32139;DHT22;18644;48.700;9.210;2023-02-12T07:37:19;7.60;59.90
32139;DHT22;18644;48.700;9.210;2023-02-12T07:39:47;7.70;60.00
32139;DHT22;18644;48.700;9.210;2023-02-12T07:42:16;7.70;60.00
32139;DHT22;18644;48.700;9.210;2023-02-12T07:44:43;7.80;60.10
32139;DHT22;18644;48.700;9.210;2023-02-12T07:47:10;7.80;60.20
32139;DHT22;18644;48.700;9.210;2023-02-12T07:49:36;7.80;60.20
32139;DHT22;18644;48.700;9.210;2023-02-12T07:52:03;7.80;60.20
32139;DHT22;18644;48.700;9.210;2023-02-12T07:54:30;7.90;60.20
32139;DHT22;18644;48.700;9.210;2023-02-12T07:56:57;7.90;60.10
32139;DHT22;18644;48.700;9.210;2023-02-12T07:59:26;7.90;60.10
32139;DHT22;18644;48.700;9.210;2023-02-12T08:01:54;8.00;60.20
32139;DHT22;18644;48.700;9.210;2023-02-12T08:04:24;8.10;60.20
32139;DHT22;18644;48.700;9.210;2023-02-12T08:06:52;8.10;60.20
32139;DHT22;18644;48.700;9.210;2023-02-12T08:09:22;8.20;60.20
32139;DHT22;18644;48.700;9.210;2023-02-12T08:11:51;8.20;60.30
32139;DHT22;18644;48.700;9.210;2023-02-12T08:14:20;8.30;60.10
32139;DHT22;18644;48.700;9.210;2023-02-12T08:16:49;8.30;59.90
32139;DHT22;18644;48.700;9.210;2023-02-12T08:19:16;8.40;59.70
32139;DHT22;18644;48.700;9.210;2023-02-12T08:21:44;8.40;59.60
32139;DHT22;18644;48.700;9.210;2023-02-12T08:24:11;8.40;59.60
32139;DHT22;18644;48.700;9.210;2023-02-12T08:26:38;8.50;59.80
32139;DHT22;18644;48.700;9.210;2023-02-12T08:29:07;8.50;59.70
32139;DHT22;18644;48.700;9.210;2023-02-12T08:31:37;8.60;59.70
32139;DHT22;18644;48.700;9.210;2023-02-12T08:34:14;8.60;59.80
32139;DHT22;18644;48.700;9.210;2023-02-12T08:36:43;8.70;59.70
32139;DHT22;18644;48.700;9.210;2023-02-12T08:39:10;8.80;59.70
32139;DHT22;18644;48.700;9.210;2023-02-12T08:41:38;8.90;59.70
32139;DHT22;18644;48.700;9.210;2023-02-12T08:44:07;8.90;59.60
32139;DHT22;18644;48.700;9.210;2023-02-12T08:46:36;9.00;59.60
32139;DHT22;18644;48.700;9.210;2023-02-12T08:49:10;9.10;59.60
32139;DHT22;18644;48.700;9.210;2023-02-12T08:51:40;9.10;59.40
32139;DHT22;18644;48.700;9.210;2023-02-12T08:54:11;9.20;59.30
32139;DHT22;18644;48.700;9.210;2023-02-12T08:56:39;9.20;59.20
32139;DHT22;18644;48.700;9.210;2023-02-12T08:59:07;9.30;59.20
32139;DHT22;18644;48.700;9.210;2023-02-12T09:01:37;9.40;59.30
32139;DHT22;18644;48.700;9.210;2023-02-12T09:04:08;9.40;59.30
32139;DHT22;18644;48.700;9.210;2023-02-12T09:06:39;9.50;59.40
32139;DHT22;18644;48.700;9.210;2023-02-12T09:09:07;9.60;59.40
32139;DHT22;18644;48.700;9.210;2023-02-12T09:11:34;9.60;59.40
32139;DHT22;18644;48.700;9.210;2023-02-12T09:14:03;9.70;59.40
32139;DHT22;18644;48.700;9.210;2023-02-12T09:16:33;9.80;59.40
32139;DHT22;18644;48.700;9.210;2023-02-12T09:19:02;9.80;59.30
32139;DHT22;18644;48.700;9.210;2023-02-12T09:21:33;9.90;59.30
32139;DHT22;18644;48.700;9.210;2023-02-12T09:24:01;10.00;59.30
32139;DHT22;18644;48.700;9.210;2023-02-12T09:26:28;10.10;59.50
32139;DHT22;18644;48.700;9.210;2023-02-12T09:28:56;10.10;59.50
32139;DHT22;18644;48.700;9.210;2023-02-12T09:31:26;10.20;59.30
32139;DHT22;18644;48.700;9.210;2023-02-12T09:34:12;10.30;59.30
32139;DHT22;18644;48.700;9.210;2023-02-12T09:36:40;10.40;59.30
32139;DHT22;18644;48.700;9.210;2023-02-12T09:39:07;10.40;59.20
32139;DHT22;18644;48.700;9.210;2023-02-12T09:41:49;10.50;59.20
32139;DHT22;18644;48.700;9.210;2023-02-12T09:44:31;10.60;59.20
32139;DHT22;18644;48.700;9.210;2023-02-12T09:47:07;10.70;59.20
32139;DHT22;18644;48.700;9.210;2023-02-12T09:50:00;10.80;59.30
32139;DHT22;18644;48.700;9.210;2023-02-12T09:52:34;10.90;59.20
32139;DHT22;18644;48.700;9.210;2023-02-12T09:55:02;10.90;59.00
32139;DHT22;18644;48.700;9.210;2023-02-12T09:57:30;11.00;58.90
32139;DHT22;18644;48.700;9.210;2023-02-12T10:00:02;11.10;58.90
32139;DHT22;18644;48.700;9.210;2023-02-12T10:02:31;11.20;58.90
32139;DHT22;18644;48.700;9.210;2023-02-12T10:05:00;11.30;58.70
32139;DHT22;18644;48.700;9.210;2023-02-12T10:07:42;11.30;58.40
32139;DHT22;18644;48.700;9.210;2023-02-12T10:10:28;11.40;58.40
32139;DHT22;18644;48.700;9.210;2023-02-12T10:13:09;11.40;58.40
32139;DHT22;18644;48.700;9.210;2023-02-12T10:15:46;11.50;58.40
32139;DHT22;18644;48.700;9.210;2023-02-12T10:19:00;11.60;58.30
32139;DHT22;18644;48.700;9.210;2023-02-12T10:21:50;11.60;58.00
32139;DHT22;18644;48.700;9.210;2023-02-12T10:24:42;11.70;58.00
32139;DHT22;18644;48.700;9.210;2023-02-12T10:27:33;11.70;58.00
32139;DHT22;18644;48.700;9.210;2023-02-12T10:30:13;11.80;57.90
32139;DHT22;18644;48.700;9.210;2023-02-12T10:32:45;11.90;58.00
32139;DHT22;18644;48.700;9.210;2023-02-12T10:35:16;11.90;58.00
32139;DHT22;18644;48.700;9.210;2023-02-12T10:37:48;12.00;57.90
32139;DHT22;18644;48.700;9.210;2023-02-12T10:40:22;12.00;57.70
32139;DHT22;18644;48.700;9.210;2023-02-12T10:42:51;12.10;57.60
32139;DHT22;18644;48.700;9.210;2023-02-12T10:45:20;12.20;57.30
32139;DHT22;18644;48.700;9.210;2023-02-12T10:47:52;12.20;57.20
32139;DHT22;18644;48.700;9.210;2023-02-12T10:50:39;12.30;57.30
32139;DHT22;18644;48.700;9.210;2023-02-12T10:53:19;12.30;57.20
32139;DHT22;18644;48.700;9.210;2023-02-12T10:55:48;12.30;57.20
32139;DHT22;18644;48.700;9.210;2023-02-12T10:58:20;12.40;57.10
32139;DHT22;18644;48.700;9.210;2023-02-12T11:00:55;12.40;56.80
32139;DHT22;18644;48.700;9.210;2023-02-12T11:03:28;12.30;56.60
32139;DHT22;18644;48.700;9.210;2023-02-12T11:06:11;12.30;56.40
32139;DHT22;18644;48.700;9.210;2023-02-12T11:08:42;12.30;56.40
32139;DHT22;18644;48.700;9.210;2023-02-12T11:11:13;12.30;56.60
32139;DHT22;18644;48.700;9.210;2023-02-12T11:13:45;12.20;56.60
32139;DHT22;18644;48.700;9.210;2023-02-12T11:16:14;12.30;56.60
32139;DHT22;18644;48.700;9.210;2023-02-12T11:18:57;12.20;56.40
32139;DHT22;18644;48.700;9.210;2023-02-12T11:21:25;12.20;56.40
32139;DHT22;18644;48.700;9.210;2023-02-12T11:23:52;12.20;56.40
32139;DHT22;18644;48.700;9.210;2023-02-12T11:26:31;12.20;56.60
32139;DHT22;18644;48.700;9.210;2023-02-12T11:29:00;12.20;56.70
32139;DHT22;18644;48.700;9.210;2023-02-12T11:31:32;12.30;56.80
32139;DHT22;18644;48.700;9.210;2023-02-12T11:34:09;12.30;56.70
32139;DHT22;18644;48.700;9.210;2023-02-12T11:36:43;12.30;56.60
32139;DHT22;18644;48.700;9.210;2023-02-12T11:39:19;12.30;56.60
32139;DHT22;18644;48.700;9.210;2023-02-12T11:41:51;12.40;56.60
32139;DHT22;18644;48.700;9.210;2023-02-12T11:44:20;12.30;56.40
32139;DHT22;18644;48.700;9.210;2023-02-12T11:46:51;12.40;56.40
32139;DHT22;18644;48.700;9.210;2023-02-12T11:49:23;12.40;56.50
32139;DHT22;18644;48.700;9.210;2023-02-12T11:51:53;12.40;56.60
32139;DHT22;18644;48.700;9.210;2023-02-12T11:54:26;12.40;56.60
32139;DHT22;18644;48.700;9.210;2023-02-12T11:56:56;12.40;56.50
32139;DHT22;18644;48.700;9.210;2023-02-12T11:59:34;12.40;56.50
32139;DHT22;18644;48.700;9.210;2023-02-12T12:02:17;12.30;56.40
32139;DHT22;18644;48.700;9.210;2023-02-12T12:04:57;12.40;56.40
32139;DHT22;18644;48.700;9.210;2023-02-12T12:07:33;12.40;56.60
32139;DHT22;18644;48.700;9.210;2023-02-12T12:10:06;12.40;56.80
32139;DHT22;18644;48.700;9.210;2023-02-12T12:12:44;12.40;56.80
32139;DHT22;18644;48.700;9.210;2023-02-12T12:15:18;12.40;57.20
32139;DHT22;18644;48.700;9.210;2023-02-12T12:18:23;12.50;56.60
32139;DHT22;18644;48.700;9.210;2023-02-12T12:21:15;12.50;56.60
32139;DHT22;18644;48.700;9.210;2023-02-12T12:23:48;12.50;56.60
32139;DHT22;18644;48.700;9.210;2023-02-12T12:26:21;12.50;56.50
32139;DHT22;18644;48.700;9.210;2023-02-12T12:28:56;12.60;56.60
32139;DHT22;18644;48.700;9.210;2023-02-12T12:31:30;12.60;56.70
32139;DHT22;18644;48.700;9.210;2023-02-12T12:34:05;12.70;56.70
32139;DHT22;18644;48.700;9.210;2023-02-12T12:40:21;12.80;56.60
32139;DHT22;18644;48.700;9.210;2023-02-12T12:43:02;12.80;56.60
32139;DHT22;18644;48.700;9.210;2023-02-12T12:46:04;12.90;56.40
32139;DHT22;18644;48.700;9.210;2023-02-12T12:48:53;12.90;56.10
32139;DHT22;18644;48.700;9.210;2023-02-12T12:51:41;13.00;56.20
32139;DHT22;18644;48.700;9.210;2023-02-12T12:54:27;13.00;56.30
32139;DHT22;18644;48.700;9.210;2023-02-12T12:57:09;13.10;56.30
32139;DHT22;18644;48.700;9.210;2023-02-12T13:00:05;13.10;56.20
32139;DHT22;18644;48.700;9.210;2023-02-12T13:03:00;13.10;56.00
32139;DHT22;18644;48.700;9.210;2023-02-12T13:05:53;13.10;55.90
32139;DHT22;18644;48.700;9.210;2023-02-12T13:08:46;13.20;55.90
32139;DHT22;18644;48.700;9.210;2023-02-12T13:11:34;13.20;55.90
32139;DHT22;18644;48.700;9.210;2023-02-12T13:14:23;13.20;55.80
32139;DHT22;18644;48.700;9.210;2023-02-12T13:16:59;13.30;55.80
32139;DHT22;18644;48.700;9.210;2023-02-12T13:19:42;13.40;55.90
32139;DHT22;18644;48.700;9.210;2023-02-12T13:22:19;13.40;55.80
32139;DHT22;18644;48.700;9.210;2023-02-12T13:24:53;13.40;55.60
32139;DHT22;18644;48.700;9.210;2023-02-12T13:27:24;13.50;55.50
32139;DHT22;18644;48.700;9.210;2023-02-12T13:30:00;13.50;55.50
32139;DHT22;18644;48.700;9.210;2023-02-12T13:32:34;13.50;55.50
32139;DHT22;18644;48.700;9.210;2023-02-12T13:35:06;13.50;55.40
32139;DHT22;18644;48.700;9.210;2023-02-12T13:37:36;13.60;55.30
32139;DHT22;18644;48.700;9.210;2023-02-12T13:40:14;13.60;55.20
32139;DHT22;18644;48.700;9.210;2023-02-12T13:42:47;13.60;55.20
32139;DHT22;18644;48.700;9.210;2023-02-12T13:45:37;13.60;55.20
32139;DHT22;18644;48.700;9.210;2023-02-12T13:48:30;13.60;55.00
32139;DHT22;18644;48.700;9.210;2023-02-12T13:51:10;13.60;54.80
32139;DHT22;18644;48.700;9.210;2023-02-12T13:53:58;13.60;55.00
32139;DHT22;18644;48.700;9.210;2023-02-12T13:56:39;13.70;55.20
32139;DHT22;18644;48.700;9.210;2023-02-12T13:59:39;13.70;55.20
32139;DHT22;18644;48.700;9.210;2023-02-12T14:05:23;13.90;55.10
32139;DHT22;18644;48.700;9.210;2023-02-12T14:08:28;14.00;55.20
32139;DHT22;18644;48.700;9.210;2023-02-12T14:11:07;14.10;55.10
32139;DHT22;18644;48.700;9.210;2023-02-12T14:13:45;14.20;55.20
32139;DHT22;18644;48.700;9.210;2023-02-12T14:16:18;14.30;54.70
32139;DHT22;18644;48.700;9.210;2023-02-12T14:18:47;14.30;54.40
32139;DHT22;18644;48.700;9.210;2023-02-12T14:21:40;14.30;54.40
32139;DHT22;18644;48.700;9.210;2023-02-12T14:27:34;14.40;54.40
32139;DHT22;18644;48.700;9.210;2023-02-12T14:30:24;14.50;54.20
32139;DHT22;18644;48.700;9.210;2023-02-12T14:32:58;14.50;53.90
32139;DHT22;18644;48.700;9.210;2023-02-12T14:35:41;14.50;54.00
32139;DHT22;18644;48.700;9.210;2023-02-12T14:41:27;14.60;53.60
32139;DHT22;18644;48.700;9.210;2023-02-12T14:50:37;14.60;53.70
32139;DHT22;18644;48.700;9.210;2023-02-12T14:53:24;14.70;53.40
32139;DHT22;18644;48.700;9.210;2023-02-12T14:55:55;14.70;53.10
32139;DHT22;18644;48.700;9.210;2023-02-12T14:58:25;14.70;53.10
32139;DHT22;18644;48.700;9.210;2023-02-12T15:00:55;14.70;52.90
32139;DHT22;18644;48.700;9.210;2023-02-12T15:03:29;14.70;52.80
32139;DHT22;18644;48.700;9.210;2023-02-12T15:06:03;14.70;52.70
32139;DHT22;18644;48.700;9.210;2023-02-12T15:08:40;14.60;52.60
32139;DHT22;18644;48.700;9.210;2023-02-12T15:11:20;14.60;52.70
32139;DHT22;18644;48.700;9.210;2023-02-12T15:13:56;14.60;52.70
32139;DHT22;18644;48.700;9.210;2023-02-12T15:16:32;14.60;52.90
32139;DHT22;18644;48.700;9.210;2023-02-12T15:19:06;14.60;53.00
32139;DHT22;18644;48.700;9.210;2023-02-12T15:21:42;14.60;53.00
32139;DHT22;18644;48.700;9.210;2023-02-12T15:24:12;14.60;52.90
32139;DHT22;18644;48.700;9.210;2023-02-12T15:26:42;14.60;52.70
32139;DHT22;18644;48.700;9.210;2023-02-12T15:29:19;14.60;52.70
32139;DHT22;18644;48.700;9.210;2023-02-12T15:31:53;14.60;52.50
32139;DHT22;18644;48.700;9.210;2023-02-12T15:34:23;14.60;52.60
32139;DHT22;18644;48.700;9.210;2023-02-12T15:36:56;14.60;52.60
32139;DHT22;18644;48.700;9.210;2023-02-12T15:39:34;14.60;52.60
32139;DHT22;18644;48.700;9.210;2023-02-12T15:42:23;14.60;52.50
32139;DHT22;18644;48.700;9.210;2023-02-12T15:45:01;14.50;52.30
32139;DHT22;18644;48.700;9.210;2023-02-12T15:47:33;14.50;52.30
32139;DHT22;18644;48.700;9.210;2023-02-12T15:50:00;14.50;52.30
32139;DHT22;18644;48.700;9.210;2023-02-12T15:52:32;14.40;52.30
32139;DHT22;18644;48.700;9.210;2023-02-12T15:55:00;14.30;52.20
32139;DHT22;18644;48.700;9.210;2023-02-12T15:57:30;14.30;52.20
32139;DHT22;18644;48.700;9.210;2023-02-12T16:00:04;14.20;52.20
32139;DHT22;18644;48.700;9.210;2023-02-12T16:02:33;14.20;52.20
32139;DHT22;18644;48.700;9.210;2023-02-12T16:05:03;14.10;52.30
32139;DHT22;18644;48.700;9.210;2023-02-12T16:07:34;14.10;52.30
32139;DHT22;18644;48.700;9.210;2023-02-12T16:10:03;14.00;52.30
32139;DHT22;18644;48.700;9.210;2023-02-12T16:12:33;13.90;52.90
32139;DHT22;18644;48.700;9.210;2023-02-12T16:15:04;13.90;52.30
32139;DHT22;18644;48.700;9.210;2023-02-12T16:17:33;13.70;52.20
32139;DHT22;18644;48.700;9.210;2023-02-12T16:20:04;13.70;52.20
32139;DHT22;18644;48.700;9.210;2023-02-12T16:22:36;13.60;52.30
32139;DHT22;18644;48.700;9.210;2023-02-12T16:25:12;13.50;52.30
32139;DHT22;18644;48.700;9.210;2023-02-12T16:27:50;13.30;52.30
32139;DHT22;18644;48.700;9.210;2023-02-12T16:30:26;13.30;52.40
32139;DHT22;18644;48.700;9.210;2023-02-12T16:32:55;13.10;52.40
32139;DHT22;18644;48.700;9.210;2023-02-12T16:35:25;13.00;52.50
32139;DHT22;18644;48.700;9.210;2023-02-12T16:38:01;12.90;52.60
32139;DHT22;18644;48.700;9.210;2023-02-12T16:40:33;12.80;52.70